ホニアラ の空港の天気 - METARとTAF

ホニアラ国際空港 ( AGGH / HIR ) - ソロモン諸島 ガダルカナル島ホニアラ
飛行場実況気象(Metar)
観測時間02/18 01:00 SBT (02/17 14:00 UTC)
風向・風速西南西 3m/s
視程10km以上
天気現象煙霧
少しの雲 雲底高度 460m
全天の8割程度の雲 雲底高度 9140m
気温26℃
湿度89%
気圧1004hPa
METARAGGH 171400Z 25005KT 9999 HZ FEW015 BKN300 26/24 Q1004
過去の天気等 Google飛行場航空写真 Wunderground天気予報

過去48時間のMETAR

飛行場予報(TAF)
発表時間: 2/17 22:30 SBT (2/17 11:30 UTC)
予報対象時間: 17日23時 SBT ~ 18日23時 SBT
風向・風速西 8m/s 瞬間風速 13m/s
視程10km以上
少しの雲 雲底高度 490m
全天の4割程度の雲 雲底高度 880m
TAF AGGH 171130Z 1712/1812 27015G25KT 9999 FEW016 SCT029 T 27 26 25 27 Q 1004 1002 1001 1003